Time;durP1;ratioP1;P1;durP2;ratioP2;P2;SDS_P1;SDS_P2;PMS_P1;PMS_P2;Temp;Humidity;BMP_temperature;BMP_pressure;BME280_temperature;BME280_humidity;BME280_pressure;Samples;Min_cycle;Max_cycle;Signal;HPM_P1;HPM_P2
2022/09/22 00:01:42;;;;;;;9.87;6.07;;;;;;;9.09;100.00;99894.78;5097867;27;20199;-81
2022/09/22 00:04:13;;;;;;;10.20;6.00;;;;;;;9.18;100.00;99901.44;5093176;28;20190;-82
2022/09/22 00:06:46;;;;;;;10.00;5.27;;;;;;;9.14;100.00;99900.72;5091665;28;20735;-81
2022/09/22 00:09:16;;;;;;;8.23;4.70;;;;;;;9.24;100.00;99901.13;5095335;28;20188;-81
2022/09/22 00:11:46;;;;;;;11.03;4.97;;;;;;;9.29;100.00;99896.50;5093336;28;20200;-81
2022/09/22 00:14:16;;;;;;;12.23;5.37;;;;;;;9.26;100.00;99893.97;5093145;28;20246;-81
2022/09/22 00:16:48;;;;;;;8.63;5.30;;;;;;;9.17;100.00;99889.16;5094715;28;20195;-81
2022/09/22 00:19:18;;;;;;;10.53;5.23;;;;;;;9.18;100.00;99891.72;5094903;28;20188;-82
2022/09/22 00:21:49;;;;;;;8.80;4.80;;;;;;;9.09;100.00;99897.44;5092523;28;20191;-81
2022/09/22 00:24:21;;;;;;;8.70;5.13;;;;;;;9.11;100.00;99902.66;5096475;28;20192;-81
2022/09/22 00:26:50;;;;;;;11.03;6.07;;;;;;;8.96;100.00;99898.03;5095780;27;20204;-82
2022/09/22 00:29:19;;;;;;;14.67;6.70;;;;;;;8.79;100.00;99897.03;5097409;28;20194;-81
2022/09/22 00:31:48;;;;;;;11.53;6.30;;;;;;;8.78;100.00;99899.72;5090309;28;20223;-81
2022/09/22 00:34:18;;;;;;;11.40;6.47;;;;;;;8.80;100.00;99897.91;5090501;28;20220;-81
2022/09/22 00:36:52;;;;;;;14.80;7.23;;;;;;;8.74;100.00;99891.09;5094265;28;20195;-81
2022/09/22 00:39:21;;;;;;;13.43;7.90;;;;;;;8.84;100.00;99900.31;5094504;28;20253;-81
2022/09/22 00:41:52;;;;;;;15.07;8.20;;;;;;;8.76;100.00;99896.31;5092723;28;20200;-81
2022/09/22 00:44:34;;;;;;;15.47;7.97;;;;;;;8.89;100.00;99893.06;5092868;28;20227;-81
2022/09/22 00:47:08;;;;;;;16.47;8.83;;;;;;;8.88;100.00;99901.06;5094613;28;20199;-81
2022/09/22 00:49:44;;;;;;;15.27;8.30;;;;;;;8.82;100.00;99896.03;5095465;28;20199;-82
2022/09/22 00:52:19;;;;;;;21.27;9.27;;;;;;;8.63;100.00;99893.38;5028233;28;20201;-81
2022/09/22 00:54:50;;;;;;;15.13;8.90;;;;;;;8.72;100.00;99886.81;5030277;28;20315;-81
2022/09/22 00:57:21;;;;;;;19.67;10.03;;;;;;;8.49;100.00;99893.97;5023492;28;20235;-82
2022/09/22 00:59:52;;;;;;;18.07;10.20;;;;;;;8.55;100.00;99887.56;5024599;28;20190;-81
2022/09/22 01:02:22;;;;;;;17.67;9.93;;;;;;;8.56;100.00;99879.56;5028408;28;20264;-81
2022/09/22 01:04:52;;;;;;;18.40;10.10;;;;;;;8.57;100.00;99886.56;5028709;28;20275;-81
2022/09/22 01:07:28;;;;;;;17.03;10.03;;;;;;;8.48;100.00;99886.97;5027242;28;20333;-81
2022/09/22 01:09:57;;;;;;;22.90;10.90;;;;;;;8.35;100.00;99891.06;5049515;28;20244;-82
2022/09/22 01:12:28;;;;;;;20.53;10.70;;;;;;;8.25;100.00;99887.94;5094276;28;20184;-81
2022/09/22 01:15:09;;;;;;;22.33;10.97;;;;;;;8.28;100.00;99881.66;5094004;28;20203;-81
2022/09/22 01:17:51;;;;;;;18.03;9.83;;;;;;;8.29;100.00;99884.22;5091167;28;20195;-82
2022/09/22 01:21:07;;;;;;;19.30;10.30;;;;;;;8.40;100.00;99891.75;5090834;28;20224;-81
2022/09/22 01:24:14;;;;;;;17.43;10.10;;;;;;;8.40;100.00;99882.97;5072000;28;20206;-81
2022/09/22 01:27:15;;;;;;;19.40;10.30;;;;;;;8.25;100.00;99876.50;5070943;28;20240;-81
2022/09/22 01:30:17;;;;;;;20.90;9.60;;;;;;;8.32;100.00;99883.25;5009459;28;20221;-82
2022/09/22 01:33:07;;;;;;;20.53;9.77;;;;;;;8.22;100.00;99882.78;5002158;28;20209;-82
2022/09/22 01:35:44;;;;;;;19.10;10.00;;;;;;;8.12;100.00;99884.09;5008364;28;20330;-81
2022/09/22 01:38:21;;;;;;;18.07;10.00;;;;;;;8.10;100.00;99887.72;5006708;28;20229;-82
2022/09/22 01:40:54;;;;;;;15.77;10.00;;;;;;;8.13;100.00;99877.03;5010214;28;20225;-81
2022/09/22 01:43:36;;;;;;;17.87;10.30;;;;;;;8.12;100.00;99880.63;5011741;28;20261;-82
2022/09/22 01:46:12;;;;;;;20.17;10.13;;;;;;;8.19;100.00;99874.13;5009056;28;20226;-82
2022/09/22 01:48:45;;;;;;;17.03;10.27;;;;;;;7.94;100.00;99879.59;5084111;28;20214;-81
2022/09/22 01:51:18;;;;;;;18.60;10.27;;;;;;;8.00;100.00;99885.47;5091300;28;20183;-82
2022/09/22 01:53:52;;;;;;;17.17;9.60;;;;;;;7.91;100.00;99884.97;5085659;28;20219;-82
2022/09/22 01:56:23;;;;;;;17.93;10.20;;;;;;;7.76;100.00;99873.31;5091910;28;20459;-81
2022/09/22 01:58:55;;;;;;;19.10;9.53;;;;;;;7.81;100.00;99873.94;5089080;28;20224;-82
2022/09/22 02:01:29;;;;;;;20.40;9.77;;;;;;;7.71;100.00;99872.63;5092169;28;20240;-81
2022/09/22 02:04:04;;;;;;;20.63;9.77;;;;;;;7.67;100.00;99871.91;5093390;28;20206;-81
2022/09/22 02:06:36;;;;;;;18.00;10.53;;;;;;;7.59;100.00;99866.06;5091877;28;20211;-82
2022/09/22 02:09:09;;;;;;;20.33;10.93;;;;;;;7.73;100.00;99871.66;5098154;28;20210;-81
2022/09/22 02:11:39;;;;;;;21.83;10.60;;;;;;;7.76;100.00;99878.56;5094097;28;20647;-82
2022/09/22 02:14:08;;;;;;;17.47;10.03;;;;;;;7.89;100.00;99871.88;5091710;28;20207;-81
2022/09/22 02:16:39;;;;;;;17.57;10.57;;;;;;;7.76;100.00;99865.38;5090986;28;20275;-82
2022/09/22 02:19:12;;;;;;;23.53;11.83;;;;;;;7.64;100.00;99855.34;5091823;28;20203;-82
2022/09/22 02:21:48;;;;;;;20.80;11.63;;;;;;;7.82;100.00;99862.50;5088012;28;20242;-81
2022/09/22 02:24:30;;;;;;;22.23;11.90;;;;;;;7.85;100.00;99857.09;5090913;28;20187;-81
2022/09/22 02:27:00;;;;;;;19.83;12.13;;;;;;;7.80;100.00;99864.31;5088763;28;20243;-82
2022/09/22 02:29:32;;;;;;;21.37;11.63;;;;;;;7.78;100.00;99855.63;5097211;27;20253;-81
2022/09/22 02:32:06;;;;;;;22.47;12.57;;;;;;;7.78;100.00;99853.00;5095041;28;20183;-82
2022/09/22 02:34:36;;;;;;;25.23;13.50;;;;;;;7.82;100.00;99861.66;5092394;28;20206;-81
2022/09/22 02:37:13;;;;;;;27.73;13.53;;;;;;;7.74;100.00;99859.31;5091133;28;20188;-81
2022/09/22 02:39:48;;;;;;;22.40;13.13;;;;;;;7.84;100.00;99857.16;5096938;28;20183;-82
2022/09/22 02:42:28;;;;;;;23.53;12.93;;;;;;;7.82;100.00;99849.31;5095703;28;20191;-81
2022/09/22 02:45:05;;;;;;;23.57;12.47;;;;;;;7.70;100.00;99855.94;5099538;27;20215;-81
2022/09/22 02:47:41;;;;;;;23.80;13.50;;;;;;;7.57;100.00;99849.47;5097173;28;20221;-81
2022/09/22 02:50:12;;;;;;;27.33;14.77;;;;;;;7.57;100.00;99849.47;5092689;28;20195;-82
2022/09/22 02:52:42;;;;;;;28.63;14.20;;;;;;;7.38;100.00;99854.63;5095931;28;20245;-81
2022/09/22 02:55:14;;;;;;;24.57;14.00;;;;;;;7.47;100.00;99846.34;5075671;28;20206;-81
2022/09/22 02:57:43;;;;;;;30.13;15.17;;;;;;;7.36;100.00;99851.19;5067805;28;20224;-81
2022/09/22 03:00:13;;;;;;;28.73;14.47;;;;;;;7.43;100.00;99844.75;5045466;28;20205;-82
2022/09/22 03:02:43;;;;;;;31.40;14.87;;;;;;;7.51;100.00;99841.78;5043355;28;20193;-81
2022/09/22 03:05:11;;;;;;;29.10;14.43;;;;;;;7.50;100.00;99849.75;5052614;28;20233;-81
2022/09/22 03:07:40;;;;;;;26.83;15.10;;;;;;;7.57;100.00;99849.47;5048141;28;20244;-81
2022/09/22 03:10:09;;;;;;;27.20;14.73;;;;;;;7.42;100.00;99844.78;5048357;28;20304;-82
2022/09/22 03:12:41;;;;;;;29.13;14.00;;;;;;;7.42;100.00;99843.00;5051756;28;20221;-81
2022/09/22 03:15:30;;;;;;;31.30;14.60;;;;;;;7.45;100.00;99836.78;5067969;28;20634;-82
2022/09/22 03:18:00;;;;;;;23.57;14.27;;;;;;;7.41;100.00;99833.41;5092581;28;20195;-82
2022/09/22 03:20:28;;;;;;;26.30;13.83;;;;;;;7.39;100.00;99840.50;5091708;28;20195;-82
2022/09/22 03:22:57;;;;;;;23.47;12.83;;;;;;;7.28;100.00;99844.50;5094566;28;20188;-82
2022/09/22 03:25:25;;;;;;;22.53;13.30;;;;;;;7.24;100.00;99833.25;5094879;28;20200;-81
2022/09/22 03:27:55;;;;;;;23.60;13.50;;;;;;;7.16;100.00;99833.53;5092201;28;20251;-81
2022/09/22 03:30:23;;;;;;;24.03;13.10;;;;;;;7.20;100.00;99825.50;5094797;28;20192;-81
2022/09/22 03:32:51;;;;;;;23.33;13.43;;;;;;;7.11;100.00;99829.34;5093958;28;20273;-82
2022/09/22 03:35:22;;;;;;;24.27;13.93;;;;;;;7.22;100.00;99828.91;5098368;27;20220;-81
2022/09/22 03:37:50;;;;;;;24.30;12.77;;;;;;;7.16;100.00;99823.00;5097569;28;20192;-82
2022/09/22 03:40:18;;;;;;;25.87;13.77;;;;;;;7.09;100.00;99829.41;5090086;28;20241;-81
2022/09/22 03:42:49;;;;;;;26.13;13.90;;;;;;;7.01;100.00;99828.84;5096736;28;20253;-81
2022/09/22 03:45:18;;;;;;;22.27;13.50;;;;;;;7.07;100.00;99827.75;5094474;28;20219;-82
2022/09/22 03:47:46;;;;;;;24.90;13.10;;;;;;;7.07;100.00;99830.41;5093952;28;20239;-81
2022/09/22 03:50:15;;;;;;;22.70;13.00;;;;;;;7.07;100.00;99836.53;5090078;28;20246;-82
2022/09/22 03:52:45;;;;;;;21.87;13.40;;;;;;;7.21;100.00;99829.84;5096305;28;20234;-82
2022/09/22 03:55:13;;;;;;;21.90;13.03;;;;;;;7.13;100.00;99832.78;5093647;28;20203;-82
2022/09/22 03:57:42;;;;;;;25.47;12.93;;;;;;;7.22;100.00;99832.41;5094099;28;20651;-82
2022/09/22 04:00:12;;;;;;;23.53;12.17;;;;;;;7.03;100.00;99829.63;5095464;28;20221;-82
2022/09/22 04:02:41;;;;;;;21.13;12.00;;;;;;;7.12;100.00;99825.78;5095734;28;20199;-82
2022/09/22 04:05:10;;;;;;;20.53;11.57;;;;;;;7.02;100.00;99830.56;5093163;28;20245;-82
2022/09/22 04:07:39;;;;;;;21.07;12.07;;;;;;;6.98;100.00;99828.13;5095057;28;20243;-81
2022/09/22 04:10:09;;;;;;;22.43;12.83;;;;;;;6.98;100.00;99828.97;5093284;28;20222;-81
2022/09/22 04:12:38;;;;;;;21.00;11.13;;;;;;;6.85;100.00;99819.81;5095202;28;20188;-82
2022/09/22 04:15:07;;;;;;;23.37;12.27;;;;;;;6.88;100.00;99824.97;5092616;28;20191;-82
2022/09/22 04:17:36;;;;;;;22.27;11.77;;;;;;;6.95;100.00;99826.47;5034600;28;20190;-81
2022/09/22 04:20:06;;;;;;;19.70;11.33;;;;;;;6.88;100.00;99825.84;5020673;28;20232;-81
2022/09/22 04:22:34;;;;;;;23.80;11.03;;;;;;;6.94;100.00;99827.34;5033131;28;20202;-81
2022/09/22 04:25:03;;;;;;;18.03;11.53;;;;;;;6.88;100.00;99817.94;5028943;28;20795;-82
2022/09/22 04:27:33;;;;;;;18.73;10.27;;;;;;;6.96;100.00;99814.16;5026245;28;20279;-81
2022/09/22 04:30:06;;;;;;;20.13;11.33;;;;;;;6.88;100.00;99817.94;5032010;28;20217;-81
2022/09/22 04:32:34;;;;;;;19.23;11.30;;;;;;;6.89;100.00;99822.28;5030446;28;20205;-81
2022/09/22 04:35:03;;;;;;;18.73;10.40;;;;;;;6.86;100.00;99821.56;5039386;28;20228;-81
2022/09/22 04:37:31;;;;;;;21.27;10.60;;;;;;;6.90;100.00;99823.13;5096980;28;20195;-81
2022/09/22 04:40:00;;;;;;;20.67;10.10;;;;;;;6.93;100.00;99820.38;5050668;28;20196;-82
2022/09/22 04:42:30;;;;;;;19.57;11.10;;;;;;;6.86;100.00;99819.78;5046544;28;20323;-81
2022/09/22 04:45:00;;;;;;;18.20;10.07;;;;;;;6.86;100.00;99818.91;5052499;28;20227;-81
2022/09/22 04:47:29;;;;;;;17.87;10.60;;;;;;;6.72;100.00;99823.84;5045104;28;20217;-81
2022/09/22 04:49:58;;;;;;;17.37;10.00;;;;;;;6.68;100.00;99830.13;5045936;28;20193;-81
2022/09/22 04:52:27;;;;;;;18.10;9.47;;;;;;;6.63;100.00;99821.53;5045682;28;20203;-81
2022/09/22 04:54:57;;;;;;;16.97;10.00;;;;;;;6.68;100.00;99831.00;5045788;28;20288;-81
2022/09/22 04:57:25;;;;;;;16.40;9.97;;;;;;;6.62;100.00;99828.59;5054453;28;20307;-81
2022/09/22 04:59:54;;;;;;;15.17;10.63;;;;;;;6.55;100.00;99827.94;5091602;28;20199;-81
2022/09/22 05:02:24;;;;;;;19.07;10.30;;;;;;;6.42;100.00;99826.69;5093831;28;20223;-81
2022/09/22 05:04:52;;;;;;;20.40;10.73;;;;;;;6.54;100.00;99828.84;5087442;28;20238;-82
2022/09/22 05:07:21;;;;;;;19.10;10.10;;;;;;;6.58;100.00;99827.00;5092310;28;20208;-81
2022/09/22 05:09:49;;;;;;;15.30;9.83;;;;;;;6.57;100.00;99835.81;5090339;28;20245;-81
2022/09/22 05:12:20;;;;;;;16.80;9.97;;;;;;;6.59;100.00;99829.56;5092264;28;20192;-82
2022/09/22 05:14:48;;;;;;;14.50;9.07;;;;;;;6.46;100.00;99827.41;5094576;28;20214;-81
2022/09/22 05:17:17;;;;;;;11.87;8.67;;;;;;;6.47;100.00;99830.03;5096211;27;20183;-81
2022/09/22 05:19:54;;;;;;;12.63;9.57;;;;;;;6.37;100.00;99831.28;5090239;28;20203;-82
2022/09/22 05:22:26;;;;;;;16.60;9.23;;;;;;;6.32;100.00;99827.94;5091122;28;20192;-82
2022/09/22 05:24:55;;;;;;;16.23;9.37;;;;;;;6.34;100.00;99836.63;5094386;28;20188;-81
2022/09/22 05:27:24;;;;;;;13.93;9.07;;;;;;;6.32;100.00;99834.03;5090817;28;20192;-81
2022/09/22 05:29:53;;;;;;;15.40;8.40;;;;;;;6.48;100.00;99836.13;5093146;28;20196;-81
2022/09/22 05:32:21;;;;;;;13.90;8.80;;;;;;;6.37;100.00;99844.41;5089221;28;20437;-81
2022/09/22 05:34:54;;;;;;;11.77;8.10;;;;;;;6.44;100.00;99839.78;5088038;28;20195;-81
2022/09/22 05:37:23;;;;;;;11.37;7.83;;;;;;;6.39;100.00;99836.47;5092512;28;20237;-82
2022/09/22 05:39:51;;;;;;;12.93;8.37;;;;;;;6.22;100.00;99844.94;5093282;28;20246;-81
2022/09/22 05:42:20;;;;;;;13.90;7.60;;;;;;;6.30;100.00;99843.78;5094209;28;20265;-81
2022/09/22 05:44:48;;;;;;;16.13;8.57;;;;;;;6.35;100.00;99846.22;5047939;28;20204;-81
2022/09/22 05:47:16;;;;;;;12.47;8.47;;;;;;;6.41;100.00;99853.91;5042781;28;20220;-82
2022/09/22 05:49:45;;;;;;;16.93;8.70;;;;;;;6.18;100.00;99846.84;5045446;28;20216;-81
2022/09/22 05:52:17;;;;;;;14.00;8.70;;;;;;;6.28;100.00;99848.25;5044234;28;20204;-81
2022/09/22 05:54:45;;;;;;;15.27;8.60;;;;;;;6.41;100.00;99847.78;5039777;28;20193;-82
2022/09/22 05:57:13;;;;;;;13.17;7.60;;;;;;;6.51;100.00;99844.78;5043432;28;20224;-81
2022/09/22 05:59:42;;;;;;;14.03;8.70;;;;;;;6.50;100.00;99848.31;5045762;28;20240;-81
2022/09/22 06:02:10;;;;;;;14.53;7.80;;;;;;;6.50;100.00;99844.84;5046538;28;20226;-81
2022/09/22 06:04:53;;;;;;;13.90;8.33;;;;;;;6.51;100.00;99846.53;5091970;28;20231;-81
2022/09/22 06:07:24;;;;;;;14.13;8.23;;;;;;;6.62;100.00;99851.41;5090999;28;20260;-81
2022/09/22 06:09:52;;;;;;;11.67;7.57;;;;;;;6.60;100.00;99854.97;5086683;28;20211;-82
2022/09/22 06:12:21;;;;;;;13.30;8.27;;;;;;;6.52;100.00;99845.63;5086459;28;20183;-82
2022/09/22 06:14:49;;;;;;;13.80;8.60;;;;;;;6.56;100.00;99857.75;5088769;28;20256;-81
2022/09/22 06:17:18;;;;;;;14.03;8.80;;;;;;;6.52;100.00;99850.88;5090735;28;20195;-81
2022/09/22 06:19:49;;;;;;;11.73;8.20;;;;;;;6.68;100.00;99851.19;5092082;28;20191;-81
2022/09/22 06:22:18;;;;;;;13.83;7.80;;;;;;;6.87;100.00;99863.63;5092797;28;20249;-82
2022/09/22 06:24:48;;;;;;;13.10;7.97;;;;;;;6.99;100.00;99849.13;5093291;28;20192;-82
2022/09/22 06:27:19;;;;;;;14.10;7.77;;;;;;;7.20;100.00;99868.50;5093608;28;20269;-82
2022/09/22 06:29:47;;;;;;;12.93;7.70;;;;;;;7.23;100.00;99862.25;5095883;28;20212;-82
2022/09/22 06:32:18;;;;;;;8.53;7.23;;;;;;;7.30;100.00;99858.47;5093001;28;20183;-82
2022/09/22 06:34:46;;;;;;;10.63;7.63;;;;;;;7.44;100.00;99858.78;5092304;28;20188;-83
2022/09/22 06:37:15;;;;;;;9.83;7.40;;;;;;;7.46;100.00;99863.06;5087250;28;20196;-82
2022/09/22 06:39:43;;;;;;;13.97;7.87;;;;;;;7.43;100.00;99865.84;5050890;28;20193;-82
2022/09/22 06:42:16;;;;;;;16.30;8.17;;;;;;;7.55;100.00;99861.00;5043652;28;20202;-82
2022/09/22 06:44:44;;;;;;;13.47;7.97;;;;;;;7.64;100.00;99858.84;5039623;28;20274;-82
2022/09/22 06:47:13;;;;;;;10.90;8.17;;;;;;;7.78;100.00;99857.41;5043822;28;20193;-82
2022/09/22 06:49:41;;;;;;;11.40;8.03;;;;;;;7.91;100.00;99855.97;5049267;28;20319;-82
2022/09/22 06:52:13;;;;;;;12.57;8.03;;;;;;;7.98;100.00;99865.34;5045680;28;20196;-82
2022/09/22 06:54:43;;;;;;;10.33;7.70;;;;;;;8.09;100.00;99860.47;5048028;28;20251;-82
2022/09/22 06:57:12;;;;;;;11.13;8.00;;;;;;;8.08;100.00;99858.75;5044847;28;20193;-81
2022/09/22 06:59:43;;;;;;;14.43;8.30;;;;;;;8.10;100.00;99854.25;5043775;28;20197;-82
2022/09/22 07:02:11;;;;;;;11.23;7.77;;;;;;;8.24;100.00;99858.97;5048224;28;20189;-81
2022/09/22 07:04:40;;;;;;;13.23;8.40;;;;;;;8.39;100.00;99860.09;5070210;28;20234;-81
2022/09/22 07:07:08;;;;;;;12.53;8.67;;;;;;;8.57;100.00;99860.16;5095116;28;20227;-81
2022/09/22 07:09:37;;;;;;;15.23;8.37;;;;;;;8.55;100.00;99861.16;5086150;28;20208;-81
2022/09/22 07:12:05;;;;;;;14.87;8.03;;;;;;;8.71;100.00;99859.56;5092471;28;20219;-81
2022/09/22 07:14:33;;;;;;;13.47;8.23;;;;;;;8.86;100.00;99858.84;5090839;28;20238;-81
2022/09/22 07:17:03;;;;;;;12.23;8.17;;;;;;;8.95;100.00;99841.72;5087025;28;20280;-81
2022/09/22 07:19:35;;;;;;;10.30;7.67;;;;;;;9.16;100.00;99848.63;5090653;28;20202;-81
2022/09/22 07:22:03;;;;;;;12.23;8.13;;;;;;;9.27;100.00;99844.66;5093402;28;20223;-82
2022/09/22 07:24:31;;;;;;;15.23;8.70;;;;;;;9.30;100.00;99839.19;5093476;28;20234;-82
2022/09/22 07:27:03;;;;;;;15.80;9.20;;;;;;;9.40;100.00;99840.47;5097226;28;20231;-81
2022/09/22 07:29:33;;;;;;;11.03;7.30;;;;;;;9.56;100.00;99836.16;5097735;28;20211;-82
2022/09/22 07:32:03;;;;;;;11.47;7.33;;;;;;;9.63;100.00;99842.84;5091548;28;20204;-82
2022/09/22 07:34:32;;;;;;;11.67;6.53;;;;;;;9.74;100.00;99835.22;5076169;28;20227;-82
2022/09/22 07:37:01;;;;;;;11.33;6.80;;;;;;;9.88;100.00;99836.34;5097146;28;20236;-81
2022/09/22 07:39:29;;;;;;;7.63;6.03;;;;;;;9.99;100.00;99828.72;5096636;28;20188;-81
2022/09/22 07:41:58;;;;;;;12.97;6.50;;;;;;;10.05;100.00;99836.34;5096354;28;20226;-81
2022/09/22 07:48:34;;;;;;;9.37;6.37;;;;;;;10.30;100.00;99833.31;5095912;28;20203;-82
2022/09/22 07:50:03;;;;;;;8.33;6.33;;;;;;;10.48;100.00;99842.09;5096914;27;20247;-82
2022/09/22 07:52:33;;;;;;;10.67;6.40;;;;;;;10.64;100.00;99828.91;5087735;28;20204;-82
2022/09/22 07:55:02;;;;;;;10.77;6.47;;;;;;;10.69;100.00;99834.81;5093541;28;20227;-82
2022/09/22 07:57:32;;;;;;;7.93;6.37;;;;;;;10.83;100.00;99837.59;5095429;28;20199;-82
2022/09/22 08:00:00;;;;;;;10.57;5.83;;;;;;;11.11;100.00;99834.28;5091669;28;20255;-83
2022/09/22 08:02:30;;;;;;;7.90;5.40;;;;;;;11.27;100.00;99836.91;5070514;28;20702;-82
2022/09/22 08:05:02;;;;;;;7.77;4.90;;;;;;;11.36;100.00;99829.28;5069410;28;20228;-81
2022/09/22 08:07:31;;;;;;;7.00;5.40;;;;;;;11.46;100.00;99821.69;5069830;28;20674;-82
2022/09/22 08:10:00;;;;;;;7.03;5.30;;;;;;;11.43;100.00;99821.84;5065875;28;20247;-82
2022/09/22 08:12:28;;;;;;;6.87;4.70;;;;;;;11.67;100.00;99824.88;5067307;28;20499;-83
2022/09/22 08:14:57;;;;;;;8.93;4.90;;;;;;;11.73;100.00;99822.75;5064255;28;20201;-83
2022/09/22 08:17:32;;;;;;;7.40;4.50;;;;;;;11.97;100.00;99824.97;5065880;28;20200;-83
2022/09/22 08:20:03;;;;;;;8.07;4.53;;;;;;;12.27;100.00;99830.25;5076740;28;20202;-82
2022/09/22 08:22:35;;;;;;;7.67;4.60;;;;;;;12.37;100.00;99819.91;5112946;28;20183;-82
2022/09/22 08:25:05;;;;;;;5.53;3.87;;;;;;;12.31;100.00;99816.66;5110688;28;20195;-82
2022/09/22 08:27:35;;;;;;;3.97;3.37;;;;;;;12.52;100.00;99808.34;5109503;28;20199;-82
2022/09/22 08:30:06;;;;;;;6.53;3.57;;;;;;;12.51;100.00;99804.81;5113105;28;20214;-82
2022/09/22 08:32:37;;;;;;;7.93;3.03;;;;;;;12.63;100.00;99813.84;5117843;28;20191;-82
2022/09/22 08:35:07;;;;;;;4.40;3.10;;;;;;;12.78;100.00;99804.91;5106061;28;20203;-82
2022/09/22 08:37:36;;;;;;;6.87;3.10;;;;;;;12.83;100.00;99812.59;5077504;28;20210;-82
2022/09/22 08:40:06;;;;;;;7.33;3.40;;;;;;;13.23;100.00;99815.44;5113289;28;20240;-82
2022/09/22 08:42:35;;;;;;;4.27;2.80;;;;;;;13.37;100.00;99802.06;5111732;28;20199;-82
2022/09/22 08:45:08;;;;;;;4.87;2.87;;;;;;;13.18;100.00;99805.03;5108496;28;20195;-82
2022/09/22 08:53:23;;;;;;;5.07;2.57;;;;;;;13.85;100.00;99810.44;5115258;28;20199;-84
2022/09/22 08:55:59;;;;;;;3.40;2.20;;;;;;;14.14;100.00;99803.16;5111802;28;20270;-82
2022/09/22 08:58:39;;;;;;;6.37;2.57;;;;;;;13.96;100.00;99800.75;5111858;28;20191;-82
2022/09/22 09:01:23;;;;;;;4.90;2.30;;;;;;;14.34;100.00;99805.28;5107848;28;20222;-81
2022/09/22 09:04:12;;;;;;;5.27;2.53;;;;;;;14.46;100.00;99809.78;5111920;28;20277;-81
2022/09/22 09:06:47;;;;;;;3.70;2.70;;;;;;;14.85;100.00;99805.28;5113584;28;20245;-82
2022/09/22 09:09:32;;;;;;;6.90;2.90;;;;;;;14.73;100.00;99803.50;5114717;28;20252;-82
2022/09/22 09:12:11;;;;;;;4.77;2.67;;;;;;;14.61;100.00;99807.88;5111940;28;20186;-82
2022/09/22 09:15:15;;;;;;;3.63;2.40;;;;;;;15.03;100.00;99803.13;5106829;28;20195;-81
2022/09/22 09:17:47;;;;;;;5.97;2.40;;;;;;;15.44;100.00;99800.09;5098908;28;20252;-81
2022/09/22 09:20:25;;;;;;;4.43;1.93;;;;;;;15.74;100.00;99800.53;5109478;28;20222;-82
2022/09/22 09:22:54;;;;;;;5.27;1.83;;;;;;;15.32;100.00;99793.00;5105751;28;20665;-82
2022/09/22 09:25:30;;;;;;;4.93;2.10;;;;;;;15.74;100.00;99799.69;5111160;28;20191;-82
2022/09/22 09:28:02;;;;;;;6.33;2.10;;;;;;;16.03;100.00;99795.66;5111553;28;20297;-82
2022/09/22 09:30:41;;;;;;;5.60;1.80;;;;;;;15.44;100.00;99795.63;5114065;28;20237;-82
2022/09/22 09:33:18;;;;;;;5.03;2.23;;;;;;;16.08;100.00;99797.13;5108936;28;20201;-82
2022/09/22 09:35:51;;;;;;;4.77;1.67;;;;;;;16.30;100.00;99790.00;5106047;28;20237;-82
2022/09/22 09:38:26;;;;;;;3.90;2.00;;;;;;;16.79;100.00;99788.00;5108556;28;20219;-82
2022/09/22 09:41:02;;;;;;;3.60;1.60;;;;;;;16.75;100.00;99783.88;5109253;28;20190;-82
2022/09/22 09:43:32;;;;;;;4.20;1.17;;;;;;;16.81;100.00;99786.06;5105333;28;20226;-82
2022/09/22 09:46:13;;;;;;;2.93;1.50;;;;;;;16.69;100.00;99787.88;5113834;28;20223;-82
2022/09/22 09:48:57;;;;;;;3.20;1.00;;;;;;;16.51;99.92;99790.16;5110534;28;20191;-82
2022/09/22 09:51:29;;;;;;;3.80;1.00;;;;;;;16.84;93.27;99785.81;5112534;28;20303;-82
2022/09/22 09:54:04;;;;;;;2.67;1.10;;;;;;;17.13;87.10;99789.66;5109393;28;20277;-82
2022/09/22 09:56:35;;;;;;;3.97;1.10;;;;;;;17.38;82.34;99788.53;5108572;28;20193;-82
2022/09/22 10:01:54;;;;;;;3.20;1.23;;;;;;;17.57;82.20;99789.69;5113693;28;20228;-82
2022/09/22 10:04:32;;;;;;;5.00;1.40;;;;;;;17.18;84.64;99786.63;5108202;28;20226;-83
2022/09/22 10:07:15;;;;;;;5.37;1.20;;;;;;;17.39;86.22;99782.19;5113507;28;20194;-83
2022/09/22 10:09:47;;;;;;;1.60;1.00;;;;;;;17.78;78.26;99774.53;5113697;28;20195;-83
2022/09/22 10:12:24;;;;;;;2.90;1.33;;;;;;;17.27;77.95;99777.81;5112053;28;20194;-82
2022/09/22 10:14:55;;;;;;;5.07;1.20;;;;;;;17.74;78.17;99771.25;5108257;28;20230;-82
2022/09/22 10:17:27;;;;;;;4.93;1.20;;;;;;;17.77;77.30;99770.16;5106690;28;20699;-82
2022/09/22 10:20:22;;;;;;;3.33;1.20;;;;;;;17.88;78.90;99764.75;5118936;28;20199;-82
2022/09/22 10:22:53;;;;;;;2.20;1.07;;;;;;;17.91;74.02;99759.09;5106934;28;20207;-82
2022/09/22 10:25:24;;;;;;;2.73;1.20;;;;;;;17.80;77.68;99759.16;5109853;28;20194;-82
2022/09/22 10:28:00;;;;;;;3.97;1.20;;;;;;;18.55;74.06;99772.34;5110452;28;20226;-82
2022/09/22 10:30:31;;;;;;;3.03;1.10;;;;;;;17.65;72.89;99761.25;5108708;28;20253;-82
2022/09/22 10:33:16;;;;;;;1.80;1.07;;;;;;;18.11;71.08;99757.41;5031046;28;20840;-82
2022/09/22 10:35:46;;;;;;;3.83;1.20;;;;;;;17.66;74.83;99751.38;5023467;28;20197;-82
2022/09/22 10:38:20;;;;;;;3.17;1.00;;;;;;;17.90;73.72;99753.88;5030694;28;20194;-82
2022/09/22 10:40:56;;;;;;;3.60;1.10;;;;;;;18.28;69.40;99748.75;5031090;28;20275;-82
2022/09/22 10:43:35;;;;;;;5.70;1.40;;;;;;;18.08;67.60;99744.28;5030756;28;20228;-82
2022/09/22 10:46:17;;;;;;;2.27;0.80;;;;;;;18.49;66.64;99754.09;5022721;28;20264;-82
2022/09/22 10:48:49;;;;;;;3.17;1.30;;;;;;;18.23;67.73;99742.09;5027984;28;20210;-82
2022/09/22 10:51:32;;;;;;;2.83;0.90;;;;;;;18.47;66.22;99748.03;5073473;28;20207;-82
2022/09/22 10:54:29;;;;;;;3.10;1.00;;;;;;;18.64;66.37;99734.97;5108288;28;20195;-82
2022/09/22 10:57:09;;;;;;;4.23;0.87;;;;;;;19.04;64.21;99732.28;5109981;28;20226;-82
2022/09/22 10:59:54;;;;;;;2.13;0.80;;;;;;;18.12;65.04;99743.00;5115225;28;20195;-82
2022/09/22 11:03:05;;;;;;;5.70;1.10;;;;;;;18.73;66.52;99735.03;5111689;28;20230;-82
2022/09/22 11:14:41;;;;;;;3.07;1.10;;;;;;;19.55;61.12;99721.31;5116989;28;20188;-83
2022/09/22 11:17:19;;;;;;;4.17;1.10;;;;;;;19.98;57.70;99711.97;5111287;28;20195;-82
2022/09/22 11:20:01;;;;;;;1.50;0.77;;;;;;;19.80;59.29;99706.47;5115466;28;20407;-82
2022/09/22 11:22:59;;;;;;;2.00;0.80;;;;;;;20.18;57.69;99699.34;5116928;28;20222;-82
2022/09/22 11:25:43;;;;;;;1.40;0.90;;;;;;;20.44;56.92;99696.84;5113152;28;20244;-82
2022/09/22 11:28:31;;;;;;;2.70;1.10;;;;;;;20.63;54.84;99695.91;5113572;28;20230;-82
2022/09/22 11:31:00;;;;;;;2.37;1.00;;;;;;;20.92;54.41;99690.38;5110885;28;20218;-82
2022/09/22 11:33:57;;;;;;;2.00;1.00;;;;;;;20.90;53.39;99686.97;5115712;28;20201;-82
2022/09/22 11:36:41;;;;;;;4.83;1.03;;;;;;;20.79;52.51;99694.28;5109577;28;20231;-82
2022/09/22 11:39:33;;;;;;;3.90;1.23;;;;;;;21.03;51.58;99692.84;5112676;28;20236;-82
2022/09/22 11:42:16;;;;;;;5.97;1.60;;;;;;;20.83;53.46;99684.88;5108483;28;20218;-82
2022/09/22 11:44:57;;;;;;;2.33;0.80;;;;;;;21.18;52.45;99685.09;5116356;28;20190;-82
2022/09/22 11:47:40;;;;;;;1.17;1.00;;;;;;;21.39;51.71;99685.66;5113906;28;20209;-82
2022/09/22 11:50:31;;;;;;;4.10;1.10;;;;;;;20.61;55.14;99676.38;5113717;28;20191;-82
2022/09/22 11:53:22;;;;;;;3.10;0.83;;;;;;;20.91;53.35;99675.22;5109544;28;20203;-82
2022/09/22 11:56:05;;;;;;;1.60;0.70;;;;;;;20.91;53.45;99667.13;5082669;27;20195;-82
2022/09/22 11:58:39;;;;;;;2.20;0.83;;;;;;;20.85;52.56;99666.75;5134087;27;20190;-82
2022/09/22 12:01:13;;;;;;;3.07;1.07;;;;;;;21.82;52.74;99659.75;5130577;27;20247;-82
2022/09/22 12:03:46;;;;;;;2.70;0.90;;;;;;;21.06;54.05;99655.69;5136422;27;20271;-83
2022/09/22 12:06:19;;;;;;;2.60;1.00;;;;;;;21.18;54.03;99650.06;5113628;28;20223;-83
2022/09/22 12:08:55;;;;;;;1.70;1.00;;;;;;;20.70;55.55;99652.09;5115884;28;20215;-82
2022/09/22 12:11:27;;;;;;;2.70;1.00;;;;;;;20.28;56.52;99646.34;5115223;28;20222;-82
2022/09/22 12:13:57;;;;;;;2.73;1.10;;;;;;;19.91;57.79;99652.53;5114349;28;20187;-82